createdAt,value
2018-11-10T00:00:44.541Z,1001.51
2018-11-10T00:01:44.450Z,1001.47
2018-11-10T00:02:44.410Z,1001.55
2018-11-10T00:03:44.400Z,1001.52
2018-11-10T00:04:44.335Z,1001.45
2018-11-10T00:05:44.290Z,1001.50
2018-11-10T00:06:44.252Z,1001.43
2018-11-10T00:07:44.218Z,1001.49
2018-11-10T00:08:44.187Z,1001.42
2018-11-10T00:09:44.134Z,1001.41
2018-11-10T00:10:44.090Z,1001.33
2018-11-10T00:11:44.043Z,1001.37
2018-11-10T00:12:44.002Z,1001.34
2018-11-10T00:13:43.994Z,1001.33
2018-11-10T00:14:43.917Z,1001.31
2018-11-10T00:15:43.882Z,1001.24
2018-11-10T00:16:43.909Z,1001.26
2018-11-10T00:17:43.804Z,1001.21
2018-11-10T00:18:43.765Z,1001.20
2018-11-10T00:19:43.739Z,1001.33
2018-11-10T00:20:43.673Z,1001.20
2018-11-10T00:21:43.629Z,1001.18
2018-11-10T00:22:43.589Z,1001.15
2018-11-10T00:23:43.559Z,1001.08
2018-11-10T00:24:43.543Z,1001.09
2018-11-10T00:25:43.498Z,1001.11
2018-11-10T00:26:43.426Z,1001.15
2018-11-10T00:27:43.394Z,1001.10
2018-11-10T00:28:43.355Z,1001.05
2018-11-10T00:29:43.314Z,1001.12
2018-11-10T00:30:43.302Z,1001.06
2018-11-10T00:31:43.224Z,1001.01
2018-11-10T00:32:43.186Z,1001.02
2018-11-10T00:33:43.144Z,1001.03
2018-11-10T00:34:43.109Z,1001.07
2018-11-10T00:35:43.067Z,1001.08
2018-11-10T00:36:43.052Z,1001.03
2018-11-10T00:37:42.985Z,1001.12
2018-11-10T00:38:42.952Z,1001.05
2018-11-10T00:39:42.894Z,1000.98
2018-11-10T00:40:42.883Z,1000.96
2018-11-10T00:41:42.829Z,1000.96
2018-11-10T00:42:42.805Z,1000.91
2018-11-10T00:43:42.739Z,1000.93
2018-11-10T00:44:42.693Z,1000.96
2018-11-10T00:45:42.677Z,1000.89
2018-11-10T00:46:42.622Z,1001.05
2018-11-10T00:47:42.576Z,1000.90
2018-11-10T00:48:42.536Z,1001.03
2018-11-10T00:49:42.522Z,1000.95
2018-11-10T00:50:42.454Z,1000.95
2018-11-10T00:51:42.411Z,1000.94
2018-11-10T00:52:42.390Z,1000.91
2018-11-10T00:53:42.329Z,1000.90
2018-11-10T00:54:42.319Z,1000.91
2018-11-10T00:55:42.252Z,1000.91
2018-11-10T00:56:42.214Z,1000.94
2018-11-10T00:57:42.191Z,1000.93
2018-11-10T00:58:42.124Z,1000.95
2018-11-10T00:59:42.120Z,1000.91
2018-11-10T01:00:42.050Z,1000.91
2018-11-10T01:01:42.040Z,1000.91
2018-11-10T01:02:41.990Z,1000.91
2018-11-10T01:03:41.922Z,1000.94
2018-11-10T01:04:41.882Z,1000.82
2018-11-10T01:05:41.839Z,1000.78
2018-11-10T01:06:41.802Z,1000.83
2018-11-10T01:07:41.800Z,1000.79
2018-11-10T01:08:41.725Z,1000.79
2018-11-10T01:09:41.687Z,1000.79
2018-11-10T01:10:41.645Z,1000.74
2018-11-10T01:11:41.612Z,1000.73
2018-11-10T01:12:41.579Z,1000.65
2018-11-10T01:13:41.530Z,1000.64
2018-11-10T01:14:41.483Z,1000.71
2018-11-10T01:15:41.434Z,1000.74
2018-11-10T01:16:41.399Z,1000.74
2018-11-10T01:17:41.376Z,1000.73
2018-11-10T01:18:41.342Z,1000.67
2018-11-10T01:19:41.282Z,1000.69
2018-11-10T01:20:41.240Z,1000.69
2018-11-10T01:21:41.199Z,1000.60
2018-11-10T01:22:41.158Z,1000.64
2018-11-10T01:23:41.112Z,1000.50
2018-11-10T01:24:41.098Z,1000.56
2018-11-10T01:25:41.031Z,1000.51
2018-11-10T01:26:40.990Z,1000.43
2018-11-10T01:27:41.000Z,1000.47
2018-11-10T01:28:40.938Z,1000.42
2018-11-10T01:29:40.872Z,1000.40
2018-11-10T01:30:40.848Z,1000.41
2018-11-10T01:31:40.796Z,1000.44
2018-11-10T01:32:40.755Z,1000.37
2018-11-10T01:33:40.720Z,1000.30
2018-11-10T01:34:40.675Z,1000.31
2018-11-10T01:35:40.668Z,1000.29
2018-11-10T01:36:40.584Z,1000.31
2018-11-10T01:37:40.569Z,1000.27
2018-11-10T01:38:40.506Z,1000.24
2018-11-10T01:39:40.475Z,1000.16
2018-11-10T01:40:40.439Z,1000.14
2018-11-10T01:41:40.388Z,1000.08
2018-11-10T01:42:40.375Z,1000.05
2018-11-10T01:43:40.299Z,999.95
2018-11-10T01:44:40.261Z,999.99
2018-11-10T01:45:40.231Z,999.99
2018-11-10T01:46:40.183Z,1000.01
2018-11-10T01:47:40.143Z,999.98
2018-11-10T01:48:40.122Z,1000.00
2018-11-10T01:49:40.061Z,1000.00
2018-11-10T01:50:40.021Z,1000.00
2018-11-10T01:51:39.984Z,999.97
2018-11-10T01:52:50.266Z,999.95
2018-11-10T01:53:39.937Z,999.92
2018-11-10T01:54:39.864Z,999.98
2018-11-10T01:55:39.824Z,999.92
2018-11-10T01:56:39.779Z,999.98
2018-11-10T01:57:39.758Z,999.95
2018-11-10T01:58:39.730Z,1000.00
2018-11-10T01:59:39.704Z,999.99
2018-11-10T02:00:39.619Z,999.88
2018-11-10T02:01:39.615Z,999.91
2018-11-10T02:02:39.596Z,1000.00
2018-11-10T02:03:39.557Z,999.92
2018-11-10T02:04:39.468Z,999.84
2018-11-10T02:05:39.429Z,999.93
2018-11-10T02:06:39.380Z,999.90
2018-11-10T02:07:39.397Z,999.86
2018-11-10T02:08:39.303Z,999.86
2018-11-10T02:09:39.840Z,999.83
2018-11-10T02:10:39.229Z,999.75
2018-11-10T02:11:39.181Z,999.80
2018-11-10T02:12:39.146Z,999.80
2018-11-10T02:13:39.100Z,999.80
2018-11-10T02:14:39.094Z,999.73
2018-11-10T02:15:39.028Z,999.78
2018-11-10T02:16:38.987Z,999.75
2018-11-10T02:17:38.939Z,999.78
2018-11-10T02:18:38.890Z,999.72
2018-11-10T02:19:38.873Z,999.65
2018-11-10T02:20:38.842Z,999.60
2018-11-10T02:21:38.769Z,999.59
2018-11-10T02:22:38.786Z,999.51
2018-11-10T02:23:38.738Z,999.57
2018-11-10T02:24:38.716Z,999.55
2018-11-10T02:25:38.663Z,999.51
2018-11-10T02:26:38.629Z,999.52
2018-11-10T02:27:38.533Z,999.55
2018-11-10T02:28:38.497Z,999.45
2018-11-10T02:29:38.495Z,999.50
2018-11-10T02:30:38.443Z,999.50
2018-11-10T02:31:38.377Z,999.42
2018-11-10T02:32:38.382Z,999.46
2018-11-10T02:33:38.333Z,999.44
2018-11-10T02:34:38.296Z,999.40
2018-11-10T02:35:38.259Z,999.38
2018-11-10T02:36:38.211Z,999.41
2018-11-10T02:37:38.143Z,999.44
2018-11-10T02:38:38.191Z,999.46
2018-11-10T02:39:38.096Z,999.39
2018-11-10T02:40:38.025Z,999.30
2018-11-10T02:41:37.985Z,999.37
2018-11-10T02:42:37.935Z,999.27
2018-11-10T02:43:37.948Z,999.28
2018-11-10T02:44:37.900Z,999.29
2018-11-10T02:45:37.801Z,999.29
2018-11-10T02:46:37.747Z,999.27
2018-11-10T02:47:37.748Z,999.24
2018-11-10T02:48:37.687Z,999.26
2018-11-10T02:49:37.680Z,999.22
2018-11-10T02:50:37.631Z,999.26
2018-11-10T02:51:37.581Z,999.18
2018-11-10T02:52:37.563Z,999.13
2018-11-10T02:53:37.490Z,999.25
2018-11-10T02:54:37.476Z,999.22
2018-11-10T02:55:37.418Z,999.22
2018-11-10T02:56:37.399Z,999.25
2018-11-10T02:57:37.324Z,999.27
2018-11-10T02:58:37.318Z,999.22
2018-11-10T02:59:37.231Z,999.16
2018-11-10T03:00:37.222Z,999.22
2018-11-10T03:01:37.212Z,999.26
2018-11-10T03:02:37.124Z,999.19
2018-11-10T03:03:37.078Z,999.19
2018-11-10T03:04:37.044Z,999.25
2018-11-10T03:05:36.995Z,999.23
2018-11-10T03:06:36.991Z,999.16
2018-11-10T03:07:36.950Z,999.14
2018-11-10T03:08:36.905Z,999.14
2018-11-10T03:09:36.859Z,999.16
2018-11-10T03:10:36.852Z,999.18
2018-11-10T03:11:36.776Z,999.18
2018-11-10T03:12:36.778Z,999.18
2018-11-10T03:13:36.670Z,999.19
2018-11-10T03:14:36.638Z,999.21
2018-11-10T03:15:36.613Z,999.07
2018-11-10T03:16:36.574Z,999.11
2018-11-10T03:17:36.527Z,999.08
2018-11-10T03:18:36.495Z,999.08
2018-11-10T03:19:36.445Z,999.06
2018-11-10T03:20:36.434Z,999.03
2018-11-10T03:21:36.398Z,999.03
2018-11-10T03:22:36.352Z,999.03
2018-11-10T03:23:36.270Z,999.01
2018-11-10T03:24:36.269Z,998.98
2018-11-10T03:25:36.204Z,999.05
2018-11-10T03:26:36.157Z,999.01
2018-11-10T03:27:36.157Z,998.97
2018-11-10T03:28:36.075Z,999.03
2018-11-10T03:29:36.065Z,998.98
2018-11-10T03:30:35.996Z,999.04
2018-11-10T03:31:35.957Z,999.00
2018-11-10T03:32:35.917Z,998.95
2018-11-10T03:33:35.948Z,998.92
2018-11-10T03:34:35.867Z,998.87
2018-11-10T03:35:35.788Z,999.00
2018-11-10T03:36:35.775Z,998.96
2018-11-10T03:37:35.757Z,998.92
2018-11-10T03:38:35.721Z,998.91
2018-11-10T03:39:35.626Z,998.89
2018-11-10T03:40:35.583Z,998.85
2018-11-10T03:41:35.530Z,998.86
2018-11-10T03:42:35.502Z,998.84
2018-11-10T03:43:35.488Z,998.79
2018-11-10T03:44:35.456Z,998.77
2018-11-10T03:45:35.391Z,998.77
2018-11-10T03:46:35.369Z,998.78
2018-11-10T03:47:35.339Z,998.72
2018-11-10T03:48:35.333Z,998.72
2018-11-10T03:49:35.250Z,998.67
2018-11-10T03:50:35.189Z,998.71
2018-11-10T03:51:35.190Z,998.67
2018-11-10T03:52:35.118Z,998.61
2018-11-10T03:53:35.090Z,998.62
2018-11-10T03:54:35.037Z,998.60
2018-11-10T03:55:34.974Z,998.46
2018-11-10T03:56:34.949Z,998.54
2018-11-10T03:57:35.009Z,998.53
2018-11-10T03:58:34.864Z,998.56
2018-11-10T03:59:34.847Z,998.54
2018-11-10T04:00:34.808Z,998.51
2018-11-10T04:01:34.749Z,998.54
2018-11-10T04:02:34.708Z,998.48
2018-11-10T04:03:34.653Z,998.56
2018-11-10T04:04:34.667Z,998.50
2018-11-10T04:05:34.598Z,998.61
2018-11-10T04:06:34.541Z,998.54
2018-11-10T04:07:34.505Z,998.51
2018-11-10T04:08:34.451Z,998.46
2018-11-10T04:09:34.456Z,998.45
2018-11-10T04:10:34.421Z,998.43
2018-11-10T04:11:34.336Z,998.47
2018-11-10T04:12:34.323Z,998.43
2018-11-10T04:13:34.263Z,998.37
2018-11-10T04:14:34.209Z,998.38
2018-11-10T04:15:34.287Z,998.38
2018-11-10T04:16:34.142Z,998.51
2018-11-10T04:17:34.090Z,998.43
2018-11-10T04:18:34.058Z,998.35
2018-11-10T04:19:34.015Z,998.26
2018-11-10T04:20:34.004Z,998.33
2018-11-10T04:21:33.933Z,998.33
2018-11-10T04:22:33.897Z,998.25
2018-11-10T04:23:33.850Z,998.22
2018-11-10T04:24:33.829Z,998.22
2018-11-10T04:25:33.802Z,998.18
2018-11-10T04:26:33.751Z,998.16
2018-11-10T04:27:33.714Z,998.10
2018-11-10T04:28:33.640Z,998.09
2018-11-10T04:29:33.652Z,998.17
2018-11-10T04:30:33.580Z,998.07
2018-11-10T04:31:33.605Z,998.17
2018-11-10T04:32:33.505Z,998.15
2018-11-10T04:33:33.446Z,998.02
2018-11-10T04:34:33.437Z,998.00
2018-11-10T04:35:33.378Z,998.00
2018-11-10T04:36:33.343Z,998.15
2018-11-10T04:37:33.330Z,998.04
2018-11-10T04:38:33.263Z,997.98
2018-11-10T04:39:33.215Z,998.01
2018-11-10T04:40:33.177Z,997.92
2018-11-10T04:41:33.140Z,997.97
2018-11-10T04:42:33.104Z,997.97
2018-11-10T04:43:33.108Z,997.93
2018-11-10T04:44:33.027Z,997.96
2018-11-10T04:45:32.987Z,997.99
2018-11-10T04:46:32.920Z,997.94
2018-11-10T04:47:32.927Z,997.94
2018-11-10T04:48:32.885Z,997.90
2018-11-10T04:49:32.848Z,997.85
2018-11-10T04:50:32.798Z,997.84
2018-11-10T04:51:32.742Z,997.95
2018-11-10T04:52:32.712Z,997.87
2018-11-10T04:53:32.666Z,997.85
2018-11-10T04:54:32.643Z,997.90
2018-11-10T04:55:32.580Z,997.88
2018-11-10T04:56:32.548Z,997.94
2018-11-10T04:57:32.486Z,997.94
2018-11-10T04:58:32.450Z,997.88
2018-11-10T04:59:32.437Z,998.04
2018-11-10T05:00:32.377Z,997.95
2018-11-10T05:01:32.358Z,997.94
2018-11-10T05:02:32.294Z,997.95
2018-11-10T05:03:32.285Z,997.95
2018-11-10T05:04:32.218Z,997.92
2018-11-10T05:05:32.172Z,998.20
2018-11-10T05:06:32.135Z,998.01
2018-11-10T05:07:32.089Z,998.01
2018-11-10T05:08:32.075Z,998.04
2018-11-10T05:09:32.015Z,998.12
2018-11-10T05:10:31.974Z,998.09
2018-11-10T05:11:31.925Z,998.01
2018-11-10T05:12:31.894Z,998.03
2018-11-10T05:13:31.887Z,998.02
2018-11-10T05:14:31.814Z,998.08
2018-11-10T05:15:31.782Z,997.99
2018-11-10T05:16:31.736Z,997.97
2018-11-10T05:17:31.690Z,998.17
2018-11-10T05:18:31.685Z,997.97
2018-11-10T05:19:31.634Z,997.92
2018-11-10T05:20:31.581Z,998.01
2018-11-10T05:21:31.536Z,997.96
2018-11-10T05:22:31.530Z,997.97
2018-11-10T05:23:31.455Z,998.06
2018-11-10T05:24:31.454Z,998.21
2018-11-10T05:25:31.393Z,998.11
2018-11-10T05:26:31.321Z,998.01
2018-11-10T05:27:31.291Z,998.05
2018-11-10T05:28:31.257Z,998.03
2018-11-10T05:29:31.204Z,998.08
2018-11-10T05:30:31.194Z,998.04
2018-11-10T05:31:31.151Z,998.27
2018-11-10T05:32:31.084Z,998.19
2018-11-10T05:33:31.059Z,998.08
2018-11-10T05:34:31.045Z,998.05
2018-11-10T05:35:30.992Z,998.08
2018-11-10T05:36:30.938Z,998.12
2018-11-10T05:37:30.892Z,998.12
2018-11-10T05:38:30.862Z,998.18
2018-11-10T05:39:30.833Z,998.02
2018-11-10T05:40:30.765Z,998.07
2018-11-10T05:41:30.744Z,997.96
2018-11-10T05:42:30.693Z,998.10
2018-11-10T05:43:30.643Z,997.99
2018-11-10T05:44:30.629Z,998.04
2018-11-10T05:45:30.570Z,997.95
2018-11-10T05:46:30.521Z,997.96
2018-11-10T05:47:30.484Z,998.04
2018-11-10T05:48:30.450Z,997.98
2018-11-10T05:49:30.429Z,997.99
2018-11-10T05:50:30.358Z,998.02
2018-11-10T05:51:30.311Z,997.97
2018-11-10T05:52:30.266Z,998.02
2018-11-10T05:53:30.242Z,997.97
2018-11-10T05:54:30.275Z,997.97
2018-11-10T05:55:30.166Z,998.09
2018-11-10T05:56:30.119Z,998.02
2018-11-10T05:57:30.072Z,997.98
2018-11-10T05:58:30.044Z,998.06
2018-11-10T05:59:29.995Z,998.04
2018-11-10T06:00:29.981Z,998.05
2018-11-10T06:01:29.909Z,998.06
2018-11-10T06:02:29.865Z,998.05
2018-11-10T06:03:29.819Z,998.05
2018-11-10T06:04:29.791Z,997.99
2018-11-10T06:05:29.757Z,998.07
2018-11-10T06:06:29.742Z,998.07
2018-11-10T06:07:29.665Z,998.07
2018-11-10T06:08:29.627Z,998.03
2018-11-10T06:09:29.592Z,998.05
2018-11-10T06:10:29.667Z,998.05
2018-11-10T06:11:29.499Z,998.03
2018-11-10T06:12:29.487Z,997.99
2018-11-10T06:13:29.424Z,997.99
2018-11-10T06:14:29.375Z,998.02
2018-11-10T06:15:29.333Z,997.97
2018-11-10T06:16:29.315Z,997.93
2018-11-10T06:17:29.253Z,997.89
2018-11-10T06:18:29.224Z,997.93
2018-11-10T06:19:29.165Z,998.04
2018-11-10T06:20:29.126Z,997.92
2018-11-10T06:21:29.112Z,997.96
2018-11-10T06:22:29.056Z,997.92
2018-11-10T06:23:28.999Z,998.10
2018-11-10T06:24:28.959Z,997.96
2018-11-10T06:25:28.919Z,998.01
2018-11-10T06:26:28.878Z,997.90
2018-11-10T06:27:28.858Z,997.89
2018-11-10T06:28:28.802Z,997.91
2018-11-10T06:29:28.749Z,997.94
2018-11-10T06:30:28.704Z,997.96
2018-11-10T06:31:28.670Z,997.94
2018-11-10T06:32:28.701Z,997.96
2018-11-10T06:33:28.584Z,997.88
2018-11-10T06:34:28.543Z,997.95
2018-11-10T06:35:28.520Z,997.92
2018-11-10T06:36:28.463Z,997.95
2018-11-10T06:37:28.425Z,997.92
2018-11-10T06:38:28.376Z,998.04
2018-11-10T06:39:28.335Z,998.01
2018-11-10T06:40:28.324Z,997.91
2018-11-10T06:41:28.358Z,997.94
2018-11-10T06:42:28.210Z,997.97
2018-11-10T06:43:28.170Z,997.93
2018-11-10T06:44:28.128Z,998.05
2018-11-10T06:45:28.108Z,998.01
2018-11-10T06:46:28.075Z,997.94
2018-11-10T06:47:28.005Z,997.96
2018-11-10T06:48:27.969Z,998.16
2018-11-10T06:49:27.933Z,997.90
2018-11-10T06:50:27.880Z,998.04
2018-11-10T06:51:27.850Z,998.01
2018-11-10T06:52:27.822Z,998.03
2018-11-10T06:53:27.774Z,998.07
2018-11-10T06:54:27.712Z,998.11
2018-11-10T06:55:27.684Z,998.09
2018-11-10T06:56:27.639Z,998.08
2018-11-10T06:57:27.632Z,998.14
2018-11-10T06:58:27.564Z,998.08
2018-11-10T06:59:27.523Z,997.99
2018-11-10T07:00:27.469Z,998.02
2018-11-10T07:01:27.442Z,998.12
2018-11-10T07:02:27.389Z,998.09
2018-11-10T07:03:27.416Z,998.19
2018-11-10T07:04:27.318Z,998.23
2018-11-10T07:05:27.260Z,998.21
2018-11-10T07:06:27.218Z,998.13
2018-11-10T07:07:27.173Z,998.16
2018-11-10T07:08:27.137Z,998.17
2018-11-10T07:09:27.157Z,998.46
2018-11-10T07:10:27.058Z,998.32
2018-11-10T07:11:27.015Z,998.30
2018-11-10T07:12:26.977Z,998.31
2018-11-10T07:13:26.952Z,998.22
2018-11-10T07:14:26.892Z,998.30
2018-11-10T07:15:26.844Z,998.24
2018-11-10T07:16:26.837Z,998.16
2018-11-10T07:17:26.789Z,998.20
2018-11-10T07:18:26.731Z,998.27
2018-11-10T07:19:26.703Z,998.38
2018-11-10T07:20:26.643Z,998.32
2018-11-10T07:21:26.605Z,998.26
2018-11-10T07:22:26.560Z,998.36
2018-11-10T07:23:26.518Z,998.32
2018-11-10T07:24:26.498Z,998.30
2018-11-10T07:25:26.432Z,998.24
2018-11-10T07:26:26.389Z,998.33
2018-11-10T07:27:26.348Z,998.31
2018-11-10T07:28:26.305Z,998.36
2018-11-10T07:29:26.306Z,998.31
2018-11-10T07:30:26.229Z,998.42
2018-11-10T07:31:26.196Z,998.45
2018-11-10T07:32:26.148Z,998.40
2018-11-10T07:33:26.108Z,998.33
2018-11-10T07:34:26.114Z,998.43
2018-11-10T07:35:26.031Z,998.44
2018-11-10T07:36:25.991Z,998.49
2018-11-10T07:37:26.000Z,998.48
2018-11-10T07:38:25.913Z,998.43
2018-11-10T07:39:25.890Z,998.52
2018-11-10T07:40:25.844Z,998.48
2018-11-10T07:41:25.785Z,998.48
2018-11-10T07:42:25.742Z,998.40
2018-11-10T07:43:25.695Z,998.36
2018-11-10T07:44:25.675Z,998.41
2018-11-10T07:45:25.619Z,998.38
2018-11-10T07:46:25.576Z,998.45
2018-11-10T07:47:25.526Z,998.40
2018-11-10T07:48:25.508Z,998.36
2018-11-10T07:49:25.473Z,998.49
2018-11-10T07:50:25.433Z,998.51
2018-11-10T07:51:25.418Z,998.54
2018-11-10T07:52:25.332Z,998.46
2018-11-10T07:53:34.635Z,998.58
2018-11-10T07:54:25.266Z,998.45
2018-11-10T07:55:25.216Z,998.45
2018-11-10T07:56:25.150Z,998.49
2018-11-10T07:57:25.106Z,998.38
2018-11-10T07:58:25.068Z,998.47
2018-11-10T07:59:25.058Z,998.39
2018-11-10T08:00:25.014Z,998.40
2018-11-10T08:01:24.976Z,998.47
2018-11-10T08:02:24.930Z,998.44
2018-11-10T08:03:24.862Z,998.46
2018-11-10T08:04:24.844Z,998.53
2018-11-10T08:05:24.784Z,998.47
2018-11-10T08:06:24.771Z,998.47
2018-11-10T08:07:24.694Z,998.43
2018-11-10T08:08:24.677Z,998.47
2018-11-10T08:09:24.616Z,998.45
2018-11-10T08:10:24.572Z,998.48
2018-11-10T08:11:24.564Z,998.56
2018-11-10T08:12:24.500Z,998.49
2018-11-10T08:13:24.458Z,998.55
2018-11-10T08:14:24.419Z,998.56
2018-11-10T08:15:24.369Z,998.54
2018-11-10T08:16:24.349Z,998.50
2018-11-10T08:17:24.310Z,998.54
2018-11-10T08:18:24.254Z,998.48
2018-11-10T08:19:24.212Z,998.57
2018-11-10T08:20:24.172Z,998.56
2018-11-10T08:21:24.150Z,998.54
2018-11-10T08:22:24.081Z,998.58
2018-11-10T08:23:24.050Z,998.57
2018-11-10T08:24:24.006Z,998.56
2018-11-10T08:25:23.966Z,998.57
2018-11-10T08:26:23.977Z,998.56
2018-11-10T08:27:23.899Z,998.48
2018-11-10T08:28:23.838Z,998.51
2018-11-10T08:29:23.796Z,998.54
2018-11-10T08:30:23.752Z,998.55
2018-11-10T08:31:23.801Z,998.40
2018-11-10T08:32:23.707Z,998.57
2018-11-10T08:33:23.637Z,998.52
2018-11-10T08:34:23.601Z,998.55
2018-11-10T08:35:23.551Z,998.56
2018-11-10T08:36:23.512Z,998.57
2018-11-10T08:37:23.502Z,998.52
2018-11-10T08:38:23.439Z,998.68
2018-11-10T08:39:23.515Z,998.63
2018-11-10T08:40:23.345Z,998.69
2018-11-10T08:41:23.311Z,998.73
2018-11-10T08:42:23.264Z,998.63
2018-11-10T08:43:23.231Z,998.60
2018-11-10T08:44:23.193Z,998.52
2018-11-10T08:45:23.174Z,998.64
2018-11-10T08:46:23.111Z,998.65
2018-11-10T08:47:23.061Z,998.63
2018-11-10T08:48:23.049Z,998.74
2018-11-10T08:49:23.127Z,998.71
2018-11-10T08:50:22.967Z,998.71
2018-11-10T08:51:22.905Z,998.68
2018-11-10T08:52:22.870Z,998.73
2018-11-10T08:53:22.820Z,998.73
2018-11-10T08:54:22.800Z,998.76
2018-11-10T08:55:22.743Z,998.69
2018-11-10T08:56:22.705Z,998.77
2018-11-10T08:57:22.696Z,998.86
2018-11-10T08:58:22.649Z,998.84
2018-11-10T08:59:22.598Z,998.73
2018-11-10T09:00:22.536Z,998.87
2018-11-10T09:01:22.496Z,998.80
2018-11-10T09:02:22.455Z,998.80
2018-11-10T09:03:22.445Z,998.80
2018-11-10T09:04:22.407Z,998.77
2018-11-10T09:05:22.341Z,998.75
2018-11-10T09:06:22.299Z,998.74
2018-11-10T09:07:22.251Z,998.84
2018-11-10T09:08:22.211Z,998.82
2018-11-10T09:09:22.246Z,998.75
2018-11-10T09:10:22.138Z,998.90
2018-11-10T09:11:22.092Z,998.94
2018-11-10T09:12:22.050Z,998.84
2018-11-10T09:13:22.013Z,998.85
2018-11-10T09:14:21.990Z,998.88
2018-11-10T09:15:21.937Z,998.80
2018-11-10T09:16:21.898Z,998.84
2018-11-10T09:17:21.878Z,998.91
2018-11-10T09:18:21.812Z,998.93
2018-11-10T09:19:21.793Z,998.83
2018-11-10T09:20:21.751Z,998.91
2018-11-10T09:21:21.816Z,998.90
2018-11-10T09:22:21.667Z,998.94
2018-11-10T09:23:21.611Z,998.96
2018-11-10T09:24:21.573Z,998.92
2018-11-10T09:25:21.549Z,998.88
2018-11-10T09:26:21.481Z,998.95
2018-11-10T09:27:22.157Z,998.93
2018-11-10T09:28:21.411Z,998.91
2018-11-10T09:29:21.368Z,999.00
2018-11-10T09:30:21.353Z,998.97
2018-11-10T09:31:21.285Z,998.99
2018-11-10T09:32:21.243Z,998.91
2018-11-10T09:33:21.207Z,998.94
2018-11-10T09:34:21.160Z,998.96
2018-11-10T09:35:21.149Z,998.97
2018-11-10T09:36:21.092Z,998.97
2018-11-10T09:37:21.048Z,998.93
2018-11-10T09:38:21.006Z,999.00
2018-11-10T09:39:20.961Z,998.92
2018-11-10T09:40:20.948Z,998.93
2018-11-10T09:41:20.885Z,999.00
2018-11-10T09:42:20.960Z,998.96
2018-11-10T09:43:20.799Z,998.95
2018-11-10T09:44:20.755Z,998.97
2018-11-10T09:45:20.718Z,998.97
2018-11-10T09:46:20.700Z,999.03
2018-11-10T09:47:20.643Z,999.04
2018-11-10T09:48:20.604Z,998.98
2018-11-10T09:49:20.562Z,999.03
2018-11-10T09:50:20.524Z,999.10
2018-11-10T09:51:20.495Z,999.02
2018-11-10T09:52:20.435Z,999.02
2018-11-10T09:53:20.392Z,998.98
2018-11-10T09:54:20.355Z,999.03
2018-11-10T09:55:20.332Z,999.05
2018-11-10T09:56:20.301Z,998.98
2018-11-10T09:57:20.258Z,999.03
2018-11-10T09:58:20.193Z,998.99
2018-11-10T09:59:20.160Z,999.02
2018-11-10T10:00:20.120Z,999.02
2018-11-10T10:01:20.195Z,999.05
2018-11-10T10:02:20.454Z,999.05
2018-11-10T10:03:19.996Z,999.03
2018-11-10T10:04:19.951Z,998.98
2018-11-10T10:05:19.911Z,999.00
2018-11-10T10:06:19.894Z,999.03
2018-11-10T10:07:19.864Z,999.01
2018-11-10T10:08:19.797Z,999.03
2018-11-10T10:09:19.758Z,999.01
2018-11-10T10:10:19.717Z,999.00
2018-11-10T10:11:19.671Z,999.01
2018-11-10T10:12:19.630Z,998.97
2018-11-10T10:13:19.628Z,999.00
2018-11-10T10:14:19.557Z,998.92
2018-11-10T10:15:19.510Z,998.98
2018-11-10T10:16:19.685Z,999.05
2018-11-10T10:17:19.430Z,999.11
2018-11-10T10:18:19.434Z,999.08
2018-11-10T10:19:19.360Z,998.98
2018-11-10T10:20:19.317Z,999.04
2018-11-10T10:21:19.277Z,999.02
2018-11-10T10:22:19.238Z,998.93
2018-11-10T10:23:19.192Z,998.85
2018-11-10T10:24:19.174Z,998.95
2018-11-10T10:25:19.112Z,998.97
2018-11-10T10:26:19.073Z,998.94
2018-11-10T10:27:19.038Z,998.92
2018-11-10T10:28:19.100Z,998.92
2018-11-10T10:29:18.954Z,998.94
2018-11-10T10:30:18.912Z,998.96
2018-11-10T10:31:18.879Z,998.90
2018-11-10T10:32:18.843Z,998.93
2018-11-10T10:33:18.802Z,998.90
2018-11-10T10:34:18.818Z,998.87
2018-11-10T10:35:18.926Z,998.91
2018-11-10T10:36:18.674Z,998.91
2018-11-10T10:37:18.636Z,998.81
2018-11-10T10:38:18.594Z,998.89
2018-11-10T10:39:18.586Z,998.92
2018-11-10T10:40:18.524Z,998.93
2018-11-10T10:41:18.482Z,998.86
2018-11-10T10:42:18.444Z,998.91
2018-11-10T10:43:18.396Z,999.05
2018-11-10T10:44:18.381Z,998.97
2018-11-10T10:45:18.325Z,999.00
2018-11-10T10:46:18.283Z,998.97
2018-11-10T10:47:18.257Z,999.03
2018-11-10T10:48:18.197Z,999.02
2018-11-10T10:49:18.261Z,999.02
2018-11-10T10:50:18.162Z,999.05
2018-11-10T10:51:18.088Z,999.04
2018-11-10T10:52:18.044Z,999.02
2018-11-10T10:53:18.005Z,999.07
2018-11-10T10:54:17.965Z,999.11
2018-11-10T10:55:17.946Z,999.05
2018-11-10T10:56:17.931Z,999.06
2018-11-10T10:57:17.835Z,999.09
2018-11-10T10:58:17.795Z,999.06
2018-11-10T10:59:17.761Z,999.05
2018-11-10T11:00:17.747Z,999.12
2018-11-10T11:01:17.674Z,999.04
2018-11-10T11:02:17.633Z,999.10
2018-11-10T11:03:17.635Z,999.06
2018-11-10T11:04:17.569Z,999.03
2018-11-10T11:05:17.549Z,998.96
2018-11-10T11:06:17.487Z,999.08
2018-11-10T11:07:17.431Z,999.05
2018-11-10T11:08:17.393Z,998.96
2018-11-10T11:09:17.353Z,998.98
2018-11-10T11:10:17.310Z,998.95
2018-11-10T11:11:17.301Z,998.93
2018-11-10T11:12:17.236Z,998.88
2018-11-10T11:13:17.230Z,998.95
2018-11-10T11:14:17.159Z,998.93
2018-11-10T11:15:17.132Z,998.91
2018-11-10T11:16:17.068Z,998.88
2018-11-10T11:17:17.034Z,998.91
2018-11-10T11:18:16.995Z,998.94
2018-11-10T11:19:16.991Z,998.89
2018-11-10T11:20:16.907Z,998.85
2018-11-10T11:21:16.867Z,998.88
2018-11-10T11:22:16.849Z,998.86
2018-11-10T11:23:16.796Z,998.83
2018-11-10T11:24:16.780Z,998.82
2018-11-10T11:25:16.710Z,998.79
2018-11-10T11:26:16.670Z,998.86
2018-11-10T11:27:16.624Z,998.84
2018-11-10T11:28:16.581Z,998.84
2018-11-10T11:29:16.693Z,998.85
2018-11-10T11:30:16.504Z,998.81
2018-11-10T11:31:16.468Z,998.80
2018-11-10T11:32:16.456Z,998.85
2018-11-10T11:33:16.379Z,998.91
2018-11-10T11:34:16.340Z,998.88
2018-11-10T11:35:16.316Z,998.78
2018-11-10T11:36:16.267Z,998.76
2018-11-10T11:37:25.235Z,998.78
2018-11-10T11:38:16.180Z,998.75
2018-11-10T11:39:16.152Z,998.80
2018-11-10T11:40:16.098Z,998.78
2018-11-10T11:41:16.129Z,998.82
2018-11-10T11:42:16.021Z,998.77
2018-11-10T11:43:24.778Z,998.86
2018-11-10T11:44:15.945Z,998.82
2018-11-10T11:45:15.908Z,998.77
2018-11-10T11:46:15.863Z,998.73
2018-11-10T11:47:15.831Z,998.74
2018-11-10T11:48:15.807Z,998.75
2018-11-10T11:49:15.738Z,998.75
2018-11-10T11:50:15.694Z,998.68
2018-11-10T11:51:15.666Z,998.68
2018-11-10T11:52:15.616Z,998.60
2018-11-10T11:53:15.579Z,998.61
2018-11-10T11:54:15.570Z,998.60
2018-11-10T11:55:15.490Z,998.62
2018-11-10T11:56:15.449Z,998.57
2018-11-10T11:57:15.407Z,998.53
2018-11-10T11:58:15.428Z,998.54
2018-11-10T11:59:15.367Z,998.63
2018-11-10T12:00:15.298Z,998.53
2018-11-10T12:01:15.247Z,998.58
2018-11-10T12:02:15.264Z,998.55
2018-11-10T12:03:15.171Z,998.52
2018-11-10T12:04:15.182Z,998.50
2018-11-10T12:05:15.088Z,998.57
2018-11-10T12:06:15.051Z,998.49
2018-11-10T12:07:15.001Z,998.54
2018-11-10T12:08:14.957Z,998.51
2018-11-10T12:09:14.949Z,998.49
2018-11-10T12:10:14.883Z,998.50
2018-11-10T12:11:14.847Z,998.50
2018-11-10T12:12:14.808Z,998.48
2018-11-10T12:13:14.773Z,998.47
2018-11-10T12:14:14.748Z,998.47
2018-11-10T12:15:14.690Z,998.47
2018-11-10T12:16:14.640Z,998.48
2018-11-10T12:17:14.603Z,998.45
2018-11-10T12:18:14.566Z,998.48
2018-11-10T12:19:14.552Z,998.47
2018-11-10T12:20:14.475Z,998.48
2018-11-10T12:21:14.433Z,998.42
2018-11-10T12:22:14.438Z,998.46
2018-11-10T12:23:14.353Z,998.42
2018-11-10T12:24:14.361Z,998.41
2018-11-10T12:25:14.265Z,998.40